Main page
METAR-TAF:

METAR-TAF

Airports :

Logroño–Agoncillo Airport

Logroño, Spain

latitude: 42-27N, longitude: 002-20W, elevation: 353 m

Current weather observation

The report was made 23 minutes ago, at 10:00 UTC
Wind 4 kt from the West
Temperature 6°C
Humidity 93%
Pressure 1017 hPa
Visibility: 1200 m
Overcast at a height of 200 ft
mist

METAR: LELO 061000Z 28004KT 1200 R29/1400D BR OVC002 06/05 Q1017

Time: 11:23 (10:23 UTC)

Forecast

The report was made 2 hours and 23 minutes ago, at 08:00 UTC
Forecast valid from 06 at 09 UTC to 07 at 09 UTC
Wind 4 kt from variable directions
Visibility 10 km or more
Scattered clouds at a height of 600 ft
Probability 40% :
Temporary
from 06 at 09 UTC to 06 at 15 UTC
Visibility: 3000 m
Overcast at a height of 400 ft
mist

TAF: LELO 060800Z 0609/0709 VRB04KT 9999 SCT006 TX10/0615Z TN05/0707Z PROB40 TEMPO 0609/0615 3000 BR OVC004

Weather observations and forecasts of more than 4000 airports (METAR and TAF reports).

The available stations are represented by yellow and red dots on the map.

Hover mouse over dot to see the name of the station.

Then click to see weather observations and forecasts.

To change the map : click on the green buttons with a black cross to zoom in, on the green button with a dash to zoom out, or on the green arrows for adjacent maps.


METAR-TAF: